Terminal Aerodrome Forecast
Issued by NWS

Home | Current Version | Previous Version | Text Only | Print | Product List | Glossary On
Versions: 1 2 3 4 5 6 7 8 9 10 11 12 13 14 15 16
810
FTUS42 KMLB 061131
TAFFPR
TAF
KFPR 061131Z 0612/0712 07006KT P6SM VCSH BKN040 OVC050
     FM062200 03008KT P6SM VCSH BKN030
      TEMPO 0622/0624 4SM -SHRA BKN020
     FM070000 34010KT 5SM -SHRA BKN015
      TEMPO 0700/0704 3SM -SHRA BKN010
     FM070400 31012KT 4SM -SHRA BKN012=

USA.gov is the U.S. government's official web portal to all federal, state and local government web resources and services.